createdAt,value
2023-02-17T00:01:22.703Z,110.37
2023-02-17T00:03:51.101Z,99.37
2023-02-17T00:06:20.269Z,112.77
2023-02-17T00:08:47.689Z,95.77
2023-02-17T00:11:15.292Z,108.30
2023-02-17T00:13:42.739Z,101.27
2023-02-17T00:16:11.867Z,108.20
2023-02-17T00:18:38.882Z,93.90
2023-02-17T00:21:15.415Z,104.40
2023-02-17T00:23:42.676Z,99.67
2023-02-17T00:26:09.825Z,88.57
2023-02-17T00:28:38.107Z,85.97
2023-02-17T00:31:16.725Z,84.10
2023-02-17T00:33:43.918Z,83.57
2023-02-17T00:36:17.984Z,82.80
2023-02-17T00:38:46.685Z,80.40
2023-02-17T00:41:13.715Z,84.73
2023-02-17T00:43:40.710Z,79.60
2023-02-17T00:46:08.008Z,80.47
2023-02-17T00:48:35.241Z,71.63
2023-02-17T00:51:02.272Z,69.67
2023-02-17T00:53:29.579Z,66.80
2023-02-17T00:55:56.637Z,67.97
2023-02-17T00:58:24.119Z,72.63
2023-02-17T01:00:51.123Z,70.00
2023-02-17T01:03:19.406Z,71.43
2023-02-17T01:05:48.574Z,65.33
2023-02-17T01:08:17.075Z,69.00
2023-02-17T01:10:45.878Z,63.90
2023-02-17T01:13:14.422Z,68.87
2023-02-17T01:15:44.298Z,69.13
2023-02-17T01:18:11.296Z,63.07
2023-02-17T01:20:40.296Z,57.43
2023-02-17T01:23:08.716Z,54.87
2023-02-17T01:25:39.813Z,55.53
2023-02-17T01:28:07.894Z,55.73
2023-02-17T01:30:35.317Z,56.10
2023-02-17T01:33:02.358Z,52.20
2023-02-17T01:35:29.286Z,52.93
2023-02-17T01:37:56.203Z,53.43
2023-02-17T01:40:23.208Z,47.87
2023-02-17T01:42:50.247Z,51.50
2023-02-17T01:45:40.554Z,51.33
2023-02-17T01:48:16.214Z,50.07
2023-02-17T01:50:51.118Z,49.60
2023-02-17T01:53:22.945Z,52.70
2023-02-17T01:55:51.020Z,50.57
2023-02-17T01:58:21.028Z,53.07
2023-02-17T02:00:50.698Z,53.10
2023-02-17T02:03:17.731Z,49.17
2023-02-17T02:05:44.807Z,55.37
2023-02-17T02:08:13.031Z,50.97
2023-02-17T02:10:40.453Z,48.90
2023-02-17T02:13:08.377Z,53.43
2023-02-17T02:15:42.829Z,51.27
2023-02-17T02:18:40.687Z,51.63
2023-02-17T02:21:40.501Z,50.13
2023-02-17T02:24:31.803Z,52.07
2023-02-17T02:27:38.521Z,44.77
2023-02-17T02:33:31.977Z,48.00
2023-02-17T02:39:12.201Z,45.07
2023-02-17T02:44:18.800Z,49.75
2023-02-17T02:46:45.925Z,45.20
2023-02-17T02:49:13.012Z,45.00
2023-02-17T02:51:57.004Z,47.37
2023-02-17T02:55:03.680Z,41.37
2023-02-17T03:00:41.574Z,46.13
2023-02-17T03:03:33.123Z,43.13
2023-02-17T03:06:24.214Z,43.40
2023-02-17T03:09:14.848Z,44.70
2023-02-17T03:11:42.861Z,44.33
2023-02-17T03:14:12.719Z,46.77
2023-02-17T03:16:41.248Z,48.73
2023-02-17T03:19:09.423Z,44.13
2023-02-17T03:21:41.645Z,51.23
2023-02-17T03:24:09.502Z,47.03
2023-02-17T03:26:36.757Z,47.03
2023-02-17T03:29:03.721Z,44.57
2023-02-17T03:31:31.084Z,49.83
2023-02-17T03:33:58.658Z,41.43
2023-02-17T03:36:25.697Z,46.07
2023-02-17T03:38:52.662Z,45.80
2023-02-17T03:41:19.650Z,48.90
2023-02-17T03:43:46.599Z,44.73
2023-02-17T03:46:15.311Z,44.70
2023-02-17T03:48:42.504Z,51.90
2023-02-17T03:51:14.583Z,49.37
2023-02-17T03:53:42.621Z,49.20
2023-02-17T03:56:10.184Z,51.00
2023-02-17T03:58:37.531Z,49.87
2023-02-17T04:01:06.187Z,48.93
2023-02-17T04:03:33.341Z,49.90
2023-02-17T04:06:00.603Z,52.43
2023-02-17T04:08:28.014Z,53.63
2023-02-17T04:10:56.821Z,50.53
2023-02-17T04:13:24.398Z,54.53
2023-02-17T04:15:51.755Z,50.63
2023-02-17T04:18:19.474Z,49.43
2023-02-17T04:20:48.718Z,51.23
2023-02-17T04:23:16.561Z,56.00
2023-02-17T04:25:43.733Z,49.13
2023-02-17T04:28:11.161Z,49.30
2023-02-17T04:30:38.171Z,53.43
2023-02-17T04:33:05.789Z,62.60
2023-02-17T04:35:33.020Z,60.13
2023-02-17T04:38:00.095Z,52.77
2023-02-17T04:40:27.213Z,56.77
2023-02-17T04:42:54.140Z,54.70
2023-02-17T04:45:21.222Z,57.17
2023-02-17T04:47:48.206Z,61.70
2023-02-17T04:50:15.168Z,59.83
2023-02-17T04:52:42.174Z,60.07
2023-02-17T04:55:09.580Z,67.40
2023-02-17T04:57:36.629Z,57.10
2023-02-17T05:00:05.872Z,61.90
2023-02-17T05:02:32.920Z,56.13
2023-02-17T05:04:59.959Z,57.00
2023-02-17T05:07:27.128Z,54.53
2023-02-17T05:09:54.378Z,52.03
2023-02-17T05:12:21.340Z,56.90
2023-02-17T05:14:48.425Z,59.27
2023-02-17T05:17:15.345Z,58.27
2023-02-17T05:19:42.328Z,61.70
2023-02-17T05:22:09.340Z,61.77
2023-02-17T05:24:38.584Z,63.77
2023-02-17T05:27:05.946Z,59.07
2023-02-17T05:29:33.009Z,57.03
2023-02-17T05:32:00.029Z,62.70
2023-02-17T05:34:27.188Z,58.67
2023-02-17T05:36:54.236Z,60.83
2023-02-17T05:39:21.234Z,58.77
2023-02-17T05:41:48.267Z,56.60
2023-02-17T05:44:15.256Z,58.43
2023-02-17T05:46:42.192Z,52.67
2023-02-17T05:49:09.316Z,57.80
2023-02-17T05:51:36.956Z,49.87
2023-02-17T05:54:04.153Z,55.10
2023-02-17T05:56:31.352Z,52.10
2023-02-17T05:58:58.449Z,50.07
2023-02-17T06:01:25.488Z,52.43
2023-02-17T06:03:52.497Z,50.70
2023-02-17T06:06:19.445Z,56.93
2023-02-17T06:08:46.425Z,48.40
2023-02-17T06:11:13.453Z,50.30
2023-02-17T06:13:40.498Z,49.43
2023-02-17T06:16:07.843Z,49.03
2023-02-17T06:18:34.965Z,47.50
2023-02-17T06:21:01.924Z,52.00
2023-02-17T06:23:29.053Z,53.53
2023-02-17T06:25:56.062Z,47.43
2023-02-17T06:28:23.021Z,43.63
2023-02-17T06:30:49.963Z,52.90
2023-02-17T06:33:16.881Z,45.67
2023-02-17T06:35:48.669Z,42.67
2023-02-17T06:38:15.846Z,43.00
2023-02-17T06:40:42.793Z,44.33
2023-02-17T06:43:09.792Z,42.70
2023-02-17T06:45:36.758Z,48.83
2023-02-17T06:48:03.894Z,44.57
2023-02-17T06:50:30.856Z,44.70
2023-02-17T06:52:57.800Z,43.00
2023-02-17T06:55:24.719Z,46.60
2023-02-17T06:57:51.688Z,46.33
2023-02-17T07:00:19.495Z,46.70
2023-02-17T07:02:46.611Z,44.20
2023-02-17T07:05:13.700Z,40.70
2023-02-17T07:07:40.635Z,39.37
2023-02-17T07:10:08.503Z,39.80
2023-02-17T07:12:35.500Z,42.43
2023-02-17T07:15:02.595Z,43.63
2023-02-17T07:17:29.591Z,37.90
2023-02-17T07:19:56.618Z,39.43
2023-02-17T07:22:25.624Z,46.57
2023-02-17T07:24:53.080Z,40.50
2023-02-17T07:27:20.013Z,42.20
2023-02-17T07:29:47.042Z,43.53
2023-02-17T07:32:14.114Z,44.77
2023-02-17T07:34:41.048Z,41.37
2023-02-17T07:37:09.050Z,41.27
2023-02-17T07:39:36.342Z,41.03
2023-02-17T07:42:05.197Z,38.80
2023-02-17T07:44:32.600Z,33.03
2023-02-17T07:46:59.592Z,34.93
2023-02-17T07:49:26.699Z,32.47
2023-02-17T07:51:53.670Z,34.90
2023-02-17T07:54:20.610Z,29.37
2023-02-17T07:56:47.591Z,32.03
2023-02-17T07:59:15.051Z,30.90
2023-02-17T08:01:42.033Z,32.63
2023-02-17T08:04:09.278Z,33.87
2023-02-17T08:06:39.130Z,29.87
2023-02-17T08:09:25.993Z,29.27
2023-02-17T08:12:12.876Z,29.93
2023-02-17T08:14:39.830Z,31.87
2023-02-17T08:17:07.695Z,28.30
2023-02-17T08:19:47.371Z,28.53
2023-02-17T08:22:16.359Z,35.27
2023-02-17T08:24:43.441Z,29.97
2023-02-17T08:27:10.497Z,31.53
2023-02-17T08:29:37.530Z,34.70
2023-02-17T08:32:04.766Z,29.90
2023-02-17T08:34:34.898Z,34.83
2023-02-17T08:37:03.682Z,34.80
2023-02-17T08:39:31.248Z,35.80
2023-02-17T08:41:58.256Z,34.53
2023-02-17T08:44:25.612Z,35.97
2023-02-17T08:46:53.318Z,33.93
2023-02-17T08:49:24.612Z,33.07
2023-02-17T08:51:52.265Z,35.93
2023-02-17T08:54:19.252Z,38.77
2023-02-17T08:56:46.269Z,38.07
2023-02-17T08:59:13.631Z,38.07
2023-02-17T09:01:41.161Z,33.77
2023-02-17T09:04:10.062Z,38.80
2023-02-17T09:06:41.103Z,32.83
2023-02-17T09:09:10.897Z,41.03
2023-02-17T09:11:38.383Z,41.80
2023-02-17T09:14:06.455Z,41.00
2023-02-17T09:16:33.701Z,41.03
2023-02-17T09:19:00.745Z,42.77
2023-02-17T09:21:27.722Z,41.17
2023-02-17T09:23:54.778Z,37.60
2023-02-17T09:29:07.336Z,43.35
2023-02-17T09:31:35.515Z,47.30
2023-02-17T09:34:03.171Z,45.60
2023-02-17T09:36:33.961Z,44.03
2023-02-17T09:39:01.895Z,45.67
2023-02-17T09:41:47.964Z,45.10
2023-02-17T09:44:26.124Z,48.00
2023-02-17T09:47:16.244Z,47.40
2023-02-17T09:49:48.415Z,49.23
2023-02-17T09:52:27.792Z,48.77
2023-02-17T09:55:18.597Z,52.13
2023-02-17T09:58:09.024Z,50.43
2023-02-17T10:00:43.024Z,50.53
2023-02-17T10:03:49.803Z,51.03
2023-02-17T10:06:39.734Z,52.43
2023-02-17T10:09:28.853Z,58.60
2023-02-17T10:12:18.002Z,51.27
2023-02-17T10:15:08.261Z,50.37
2023-02-17T10:17:41.490Z,52.10
2023-02-17T10:20:37.105Z,53.97
2023-02-17T10:23:13.468Z,51.03
2023-02-17T10:26:08.375Z,55.33
2023-02-17T10:29:02.433Z,48.83
2023-02-17T10:31:48.675Z,48.13
2023-02-17T10:34:36.388Z,49.77
2023-02-17T10:37:08.457Z,50.70
2023-02-17T10:40:05.401Z,50.83
2023-02-17T10:42:36.592Z,48.63
2023-02-17T10:45:12.188Z,52.03
2023-02-17T10:47:40.288Z,45.17
2023-02-17T10:50:17.866Z,48.57
2023-02-17T10:52:44.877Z,45.80
2023-02-17T10:55:41.431Z,44.50
2023-02-17T10:58:31.383Z,44.90
2023-02-17T11:00:58.482Z,41.00
2023-02-17T11:03:29.778Z,45.17
2023-02-17T11:06:00.316Z,41.83
2023-02-17T11:09:08.387Z,43.10
2023-02-17T11:11:36.951Z,50.37
2023-02-17T11:14:27.687Z,46.93
2023-02-17T11:17:00.704Z,49.17
2023-02-17T11:20:06.034Z,49.23
2023-02-17T11:22:40.360Z,47.60
2023-02-17T11:25:28.663Z,50.23
2023-02-17T11:27:58.533Z,45.27
2023-02-17T11:30:27.678Z,48.93
2023-02-17T11:32:55.414Z,54.97
2023-02-17T11:36:02.116Z,52.20
2023-02-17T11:41:12.989Z,51.30
2023-02-17T11:43:50.529Z,48.93
2023-02-17T11:46:46.707Z,50.33
2023-02-17T11:49:53.395Z,45.03
2023-02-17T11:53:00.102Z,42.23
2023-02-17T12:01:19.492Z,44.17
2023-02-17T12:04:26.257Z,45.73
2023-02-17T12:07:32.972Z,42.97
2023-02-17T12:18:56.161Z,33.73
2023-02-17T12:21:59.455Z,36.10
2023-02-17T12:24:53.607Z,34.67
2023-02-17T12:27:47.086Z,34.43
2023-02-17T12:30:39.523Z,34.37
2023-02-17T12:33:37.280Z,35.50
2023-02-17T12:36:25.648Z,31.03
2023-02-17T12:38:59.131Z,28.43
2023-02-17T12:41:32.155Z,30.30
2023-02-17T12:44:21.583Z,27.10
2023-02-17T12:46:57.922Z,28.47
2023-02-17T12:49:34.695Z,29.20
2023-02-17T12:52:24.025Z,26.40
2023-02-17T12:54:57.320Z,25.40
2023-02-17T12:58:04.281Z,24.60
2023-02-17T13:00:39.396Z,23.50
2023-02-17T13:03:06.903Z,24.58
2023-02-17T13:06:04.291Z,21.50
2023-02-17T13:08:40.257Z,21.70
2023-02-17T13:11:13.327Z,22.97
2023-02-17T13:13:40.707Z,20.67
2023-02-17T13:16:28.591Z,22.90
2023-02-17T13:18:55.576Z,18.50
2023-02-17T13:21:33.209Z,20.17
2023-02-17T13:24:36.620Z,19.67
2023-02-17T13:27:20.010Z,17.23
2023-02-17T13:29:47.017Z,17.53
2023-02-17T13:32:14.247Z,16.40
2023-02-17T13:34:44.766Z,14.67
2023-02-17T13:37:28.306Z,14.47
2023-02-17T13:39:55.435Z,17.63
2023-02-17T13:42:42.108Z,14.27
2023-02-17T13:45:34.228Z,16.87
2023-02-17T13:48:13.703Z,17.67
2023-02-17T13:51:05.274Z,16.57
2023-02-17T13:53:38.183Z,16.47
2023-02-17T13:56:09.011Z,16.13
2023-02-17T13:58:40.272Z,15.30
2023-02-17T14:01:14.256Z,15.57
2023-02-17T14:04:01.199Z,15.07
2023-02-17T14:06:49.906Z,14.30
2023-02-17T14:09:27.159Z,15.47
2023-02-17T14:11:56.006Z,14.23
2023-02-17T14:14:28.765Z,15.20
2023-02-17T14:16:59.800Z,14.10
2023-02-17T14:19:26.837Z,15.30
2023-02-17T14:22:24.166Z,14.70
2023-02-17T14:25:04.975Z,11.57
2023-02-17T14:27:50.246Z,14.13
2023-02-17T14:30:38.734Z,16.30
2023-02-17T14:33:26.130Z,11.50
2023-02-17T14:36:12.984Z,10.83
2023-02-17T14:38:42.449Z,9.67
2023-02-17T14:41:10.348Z,10.87
2023-02-17T14:43:37.594Z,13.70
2023-02-17T14:46:05.375Z,11.27
2023-02-17T14:48:32.587Z,12.97
2023-02-17T14:50:59.535Z,11.30
2023-02-17T14:53:29.674Z,11.07
2023-02-17T14:56:20.096Z,13.60
2023-02-17T14:58:47.228Z,14.03
2023-02-17T15:01:17.573Z,14.67
2023-02-17T15:03:44.693Z,12.53
2023-02-17T15:06:23.067Z,9.13
2023-02-17T15:08:50.510Z,9.77
2023-02-17T15:11:37.624Z,8.67
2023-02-17T15:14:05.431Z,38.93
2023-02-17T15:16:32.763Z,22.73
2023-02-17T15:18:59.789Z,13.13
2023-02-17T15:21:31.469Z,16.37
2023-02-17T15:24:00.379Z,10.50
2023-02-17T15:26:30.442Z,13.37
2023-02-17T15:28:58.104Z,13.33
2023-02-17T15:31:26.961Z,16.17
2023-02-17T15:33:59.395Z,12.33
2023-02-17T15:36:27.675Z,10.63
2023-02-17T15:38:55.312Z,9.47
2023-02-17T15:41:26.986Z,8.77
2023-02-17T15:43:56.324Z,10.80
2023-02-17T15:46:29.273Z,12.57
2023-02-17T15:48:56.386Z,10.53
2023-02-17T15:55:18.922Z,9.17
2023-02-17T15:57:48.748Z,11.73
2023-02-17T16:00:36.088Z,8.13
2023-02-17T16:03:03.528Z,13.03
2023-02-17T16:05:31.470Z,10.27
2023-02-17T16:07:58.392Z,8.57
2023-02-17T16:10:27.645Z,12.40
2023-02-17T16:12:57.647Z,8.97
2023-02-17T16:15:26.082Z,10.17
2023-02-17T16:17:53.220Z,10.53
2023-02-17T16:20:40.028Z,7.00
2023-02-17T16:23:06.973Z,7.40
2023-02-17T16:25:36.340Z,7.53
2023-02-17T16:28:03.452Z,18.97
2023-02-17T16:30:50.575Z,14.23
2023-02-17T16:33:18.226Z,14.37
2023-02-17T16:35:45.606Z,12.03
2023-02-17T16:38:34.547Z,7.87
2023-02-17T16:41:01.483Z,10.13
2023-02-17T16:43:30.575Z,8.57
2023-02-17T16:46:01.597Z,7.77
2023-02-17T16:48:31.744Z,9.17
2023-02-17T16:50:58.737Z,7.97
2023-02-17T16:53:25.838Z,8.27
2023-02-17T16:55:55.246Z,7.80
2023-02-17T16:58:25.011Z,6.80
2023-02-17T17:00:54.388Z,7.50
2023-02-17T17:03:23.265Z,5.30
2023-02-17T17:05:51.918Z,8.23
2023-02-17T17:08:21.280Z,6.80
2023-02-17T17:10:49.525Z,4.77
2023-02-17T17:13:16.694Z,5.77
2023-02-17T17:15:45.228Z,7.70
2023-02-17T17:18:20.052Z,6.80
2023-02-17T17:20:47.425Z,11.55
2023-02-17T17:23:15.388Z,8.20
2023-02-17T17:25:46.851Z,12.63
2023-02-17T17:28:16.677Z,11.37
2023-02-17T17:30:43.915Z,7.03
2023-02-17T17:33:10.909Z,6.67
2023-02-17T17:35:38.222Z,7.13
2023-02-17T17:38:05.581Z,7.17
2023-02-17T17:40:48.698Z,10.50
2023-02-17T17:43:20.213Z,6.57
2023-02-17T17:45:48.715Z,7.70
2023-02-17T17:48:16.864Z,7.03
2023-02-17T17:50:44.140Z,13.03
2023-02-17T17:53:11.240Z,10.80
2023-02-17T17:55:38.229Z,10.13
2023-02-17T17:58:05.336Z,19.23
2023-02-17T18:00:32.457Z,7.97
2023-02-17T18:02:59.421Z,9.77
2023-02-17T18:05:26.458Z,11.40
2023-02-17T18:07:53.628Z,11.67
2023-02-17T18:10:21.053Z,11.67
2023-02-17T18:12:48.280Z,11.67
2023-02-17T18:15:16.382Z,52.73
2023-02-17T18:17:43.679Z,30.80
2023-02-17T18:20:12.102Z,8.40
2023-02-17T18:22:39.864Z,12.73
2023-02-17T18:25:07.102Z,12.00
2023-02-17T18:27:43.959Z,16.27
2023-02-17T18:30:15.775Z,9.80
2023-02-17T18:32:44.217Z,14.17
2023-02-17T18:35:11.953Z,8.60
2023-02-17T18:37:41.246Z,6.43
2023-02-17T18:40:12.624Z,15.27
2023-02-17T18:42:41.154Z,11.73
2023-02-17T18:45:09.092Z,13.73
2023-02-17T18:47:36.134Z,14.53
2023-02-17T18:50:03.764Z,16.57
2023-02-17T18:52:30.736Z,9.87
2023-02-17T18:54:57.703Z,11.17
2023-02-17T18:57:24.677Z,6.03
2023-02-17T18:59:51.702Z,14.47
2023-02-17T19:02:18.748Z,14.63
2023-02-17T19:04:45.758Z,10.87
2023-02-17T19:07:12.932Z,9.37
2023-02-17T19:09:42.820Z,18.17
2023-02-17T19:12:13.495Z,12.00
2023-02-17T19:14:41.812Z,16.77
2023-02-17T19:17:10.157Z,14.40
2023-02-17T19:19:38.523Z,18.33
2023-02-17T19:22:08.352Z,14.87
2023-02-17T19:24:38.049Z,11.67
2023-02-17T19:27:05.735Z,12.23
2023-02-17T19:29:32.876Z,12.00
2023-02-17T19:32:01.495Z,12.73
2023-02-17T19:34:28.976Z,15.50
2023-02-17T19:36:56.284Z,17.57
2023-02-17T19:39:23.331Z,18.70
2023-02-17T19:41:50.277Z,13.77
2023-02-17T19:44:17.567Z,14.83
2023-02-17T19:46:44.541Z,25.47
2023-02-17T19:49:11.553Z,21.67
2023-02-17T19:51:38.622Z,26.27
2023-02-17T19:54:05.598Z,13.80
2023-02-17T19:56:33.991Z,15.03
2023-02-17T19:59:01.019Z,20.50
2023-02-17T20:01:31.491Z,21.50
2023-02-17T20:04:01.681Z,12.47
2023-02-17T20:06:32.813Z,20.93
2023-02-17T20:09:02.059Z,18.73
2023-02-17T20:11:29.566Z,12.10
2023-02-17T20:13:58.459Z,13.20
2023-02-17T20:16:26.432Z,17.30
2023-02-17T20:18:55.645Z,10.70
2023-02-17T20:21:25.872Z,21.07
2023-02-17T20:23:52.931Z,27.60
2023-02-17T20:26:23.824Z,17.60
2023-02-17T20:28:51.227Z,13.23
2023-02-17T20:31:18.944Z,17.37
2023-02-17T20:33:46.456Z,24.27
2023-02-17T20:36:13.475Z,14.43
2023-02-17T20:38:40.970Z,17.40
2023-02-17T20:41:09.768Z,16.23
2023-02-17T20:43:38.318Z,16.40
2023-02-17T20:46:05.705Z,18.80
2023-02-17T20:48:33.087Z,20.47
2023-02-17T20:51:00.112Z,14.67
2023-02-17T20:53:27.616Z,19.80
2023-02-17T20:55:54.650Z,13.60
2023-02-17T20:58:21.741Z,11.70
2023-02-17T21:00:49.759Z,15.73
2023-02-17T21:03:16.826Z,18.03
2023-02-17T21:05:43.836Z,18.07
2023-02-17T21:08:10.867Z,14.73
2023-02-17T21:10:40.124Z,13.83
2023-02-17T21:13:07.180Z,15.43
2023-02-17T21:15:34.275Z,16.33
2023-02-17T21:18:01.255Z,21.47
2023-02-17T21:20:28.250Z,16.67
2023-02-17T21:22:55.267Z,13.73
2023-02-17T21:25:22.306Z,16.13
2023-02-17T21:27:49.372Z,21.70
2023-02-17T21:30:16.513Z,23.27
2023-02-17T21:32:43.693Z,15.80
2023-02-17T21:35:11.386Z,12.90
2023-02-17T21:37:40.329Z,15.47
2023-02-17T21:40:08.850Z,21.60
2023-02-17T21:42:57.676Z,21.90
2023-02-17T21:45:25.217Z,15.40
2023-02-17T21:47:52.442Z,17.40
2023-02-17T21:50:19.818Z,13.77
2023-02-17T21:52:46.828Z,17.50
2023-02-17T21:55:14.008Z,10.43
2023-02-17T21:57:41.002Z,23.97
2023-02-17T22:00:08.993Z,20.67
